Time;durP1;ratioP1;P1;durP2;ratioP2;P2;SDS_P1;SDS_P2;PMS_P1;PMS_P2;Temp;Humidity;BMP_temperature;BMP_pressure;BME280_temperature;BME280_humidity;BME280_pressure;Samples;Min_cycle;Max_cycle;Signal;HPM_P1;HPM_P2
2022/01/14 00:00:17;;;;;;;138.40;42.60;;;;;;;;;;5114042;28;20031;-49
2022/01/14 00:02:43;;;;;;;129.05;40.67;;;;;;;;;;5113640;28;20515;-47
2022/01/14 00:05:09;;;;;;;169.13;54.45;;;;;;;;;;5113507;28;20074;-47
2022/01/14 00:07:35;;;;;;;134.07;43.35;;;;;;;;;;5114148;28;20400;-48
2022/01/14 00:10:02;;;;;;;150.52;44.47;;;;;;;;;;5113843;28;20032;-48
2022/01/14 00:12:36;;;;;;;134.65;39.63;;;;;;;;;;5113462;28;20417;-47
2022/01/14 00:15:23;;;;;;;;;;;;;;;;;;5114347;28;20039;-48
2022/01/14 00:17:47;;;;;;;120.22;38.78;;;;;;;;;;5113740;28;20356;-47
2022/01/14 00:20:20;;;;;;;131.85;37.88;;;;;;;;;;5113901;28;20042;-47
2022/01/14 00:22:47;;;;;;;137.68;39.33;;;;;;;;;;5113316;28;20046;-46
2022/01/14 00:34:01;;;;;;;110.53;35.92;;;;;;;;;;5113438;28;20071;-48
2022/01/14 00:36:30;;;;;;;106.97;35.15;;;;;;;;;;5113253;28;20614;-47
2022/01/14 00:38:58;;;;;;;113.93;35.28;;;;;;;;;;5112872;28;20046;-46
2022/01/14 00:41:24;;;;;;;106.40;35.83;;;;;;;;;;5112634;28;20032;-46
2022/01/14 00:43:57;;;;;;;98.93;33.78;;;;;;;;;;5113304;28;20031;-46
2022/01/14 00:46:32;;;;;;;100.97;34.35;;;;;;;;;;5112809;28;20040;-48
2022/01/14 00:48:58;;;;;;;93.95;32.15;;;;;;;;;;5112601;28;20074;-47
2022/01/14 00:51:24;;;;;;;87.93;31.23;;;;;;;;;;5094388;28;20469;-47
2022/01/14 00:53:50;;;;;;;87.78;32.42;;;;;;;;;;5113001;28;20071;-46
2022/01/14 00:59:14;;;;;;;71.30;27.38;;;;;;;;;;5113028;28;20131;-49
2022/01/14 01:01:44;;;;;;;73.82;28.80;;;;;;;;;;5112154;28;20040;-47
2022/01/14 01:04:29;;;;;;;67.00;27.70;;;;;;;;;;5111952;28;20042;-49
2022/01/14 01:06:55;;;;;;;62.67;26.75;;;;;;;;;;5110506;28;20048;-49
2022/01/14 01:09:23;;;;;;;65.43;28.15;;;;;;;;;;5092403;28;20458;-50
2022/01/14 01:12:13;;;;;;;63.13;25.85;;;;;;;;;;5108734;28;20040;-47
2022/01/14 01:15:02;;;;;;;59.08;26.60;;;;;;;;;;5110507;28;20115;-48
2022/01/14 01:17:37;;;;;;;61.85;27.10;;;;;;;;;;5110163;28;20101;-48
2022/01/14 01:20:15;;;;;;;61.83;27.85;;;;;;;;;;5111347;28;20043;-48
2022/01/14 01:22:41;;;;;;;61.40;26.63;;;;;;;;;;5112193;28;20381;-47
2022/01/14 01:25:09;;;;;;;59.25;27.73;;;;;;;;;;5112575;28;20405;-48
2022/01/14 01:27:39;;;;;;;55.88;26.38;;;;;;;;;;5112651;28;20442;-48
2022/01/14 01:30:37;;;;;;;57.25;26.73;;;;;;;;;;5112726;28;20511;-51
2022/01/14 01:33:06;;;;;;;60.97;26.80;;;;;;;;;;5111804;28;20047;-47
2022/01/14 01:35:32;;;;;;;58.47;27.10;;;;;;;;;;5112341;28;20447;-50
2022/01/14 01:37:59;;;;;;;54.97;26.92;;;;;;;;;;5112318;28;20035;-47
2022/01/14 01:40:25;;;;;;;59.08;28.05;;;;;;;;;;5112590;28;20443;-51
2022/01/14 01:42:52;;;;;;;59.30;26.77;;;;;;;;;;5111862;28;20039;-48
2022/01/14 01:45:26;;;;;;;64.03;27.63;;;;;;;;;;5112455;28;20446;-48
2022/01/14 01:47:57;;;;;;;52.58;26.27;;;;;;;;;;5110388;28;20051;-51
2022/01/14 01:50:26;;;;;;;60.20;27.95;;;;;;;;;;5111896;28;20043;-48
2022/01/14 01:52:53;;;;;;;64.05;30.17;;;;;;;;;;5092659;28;20055;-48
2022/01/14 01:55:20;;;;;;;58.90;28.42;;;;;;;;;;5111961;28;20043;-51
2022/01/14 01:57:47;;;;;;;71.28;30.60;;;;;;;;;;5111589;28;20043;-48
2022/01/14 02:00:16;;;;;;;61.58;29.95;;;;;;;;;;5093622;28;20110;-52
2022/01/14 02:02:44;;;;;;;75.95;32.05;;;;;;;;;;5111500;28;20031;-49
2022/01/14 02:05:12;;;;;;;69.53;30.70;;;;;;;;;;5111716;28;20140;-49
2022/01/14 02:07:41;;;;;;;83.75;35.35;;;;;;;;;;5111883;28;20051;-51
2022/01/14 02:10:07;;;;;;;78.82;32.00;;;;;;;;;;5110972;28;20130;-50
2022/01/14 02:12:38;;;;;;;74.93;32.20;;;;;;;;;;5093733;28;20046;-48
2022/01/14 02:15:15;;;;;;;80.05;32.53;;;;;;;;;;5112205;28;20416;-48
2022/01/14 02:18:24;;;;;;;85.40;33.17;;;;;;;;;;5111848;28;20040;-50
2022/01/14 02:23:48;;;;;;;84.05;32.83;;;;;;;;;;5099357;28;20424;-50
2022/01/14 02:26:16;;;;;;;78.38;33.28;;;;;;;;;;5090906;28;20050;-49
2022/01/14 02:28:42;;;;;;;77.40;33.38;;;;;;;;;;5091005;28;20063;-50
2022/01/14 02:31:15;;;;;;;84.43;33.55;;;;;;;;;;5090397;28;20044;-48
2022/01/14 02:33:41;;;;;;;84.45;33.67;;;;;;;;;;5091308;28;20036;-48
2022/01/14 02:36:07;;;;;;;85.45;33.65;;;;;;;;;;5091420;28;20036;-50
2022/01/14 02:38:39;;;;;;;79.63;32.85;;;;;;;;;;5091121;28;20047;-47
2022/01/14 02:41:05;;;;;;;79.40;31.65;;;;;;;;;;5090707;28;20062;-48
2022/01/14 02:43:38;;;;;;;84.03;34.35;;;;;;;;;;5090848;28;20397;-49
2022/01/14 02:46:05;;;;;;;78.53;32.67;;;;;;;;;;5090909;28;20112;-48
2022/01/14 02:48:34;;;;;;;80.10;33.42;;;;;;;;;;5091925;28;20040;-50
2022/01/14 02:53:43;;;;;;;75.35;32.17;;;;;;;;;;5091763;28;20123;-46
2022/01/14 02:56:32;;;;;;;75.23;31.53;;;;;;;;;;5091467;28;20039;-47
2022/01/14 02:59:00;;;;;;;75.57;32.63;;;;;;;;;;5075619;28;20079;-47
2022/01/14 03:01:30;;;;;;;79.35;34.15;;;;;;;;;;5091130;28;20072;-46
2022/01/14 03:04:01;;;;;;;79.35;32.28;;;;;;;;;;5090649;28;20036;-46
2022/01/14 03:06:31;;;;;;;79.63;33.42;;;;;;;;;;5091248;28;20070;-46
2022/01/14 03:08:57;;;;;;;81.80;32.53;;;;;;;;;;5091114;28;20119;-47
2022/01/14 03:11:29;;;;;;;77.63;33.17;;;;;;;;;;5090967;28;20063;-46
2022/01/14 03:13:59;;;;;;;82.70;34.65;;;;;;;;;;5090831;28;20090;-47
2022/01/14 03:16:25;;;;;;;82.30;32.85;;;;;;;;;;5090926;28;20123;-47
2022/01/14 03:19:07;;;;;;;81.20;31.80;;;;;;;;;;5072889;28;20149;-49
2022/01/14 03:21:39;;;;;;;87.28;34.60;;;;;;;;;;5090516;28;20102;-47
2022/01/14 03:24:20;;;;;;;87.20;34.53;;;;;;;;;;5090855;28;20044;-48
2022/01/14 03:26:47;;;;;;;90.72;34.25;;;;;;;;;;5090535;28;20105;-48
2022/01/14 03:29:14;;;;;;;84.53;34.08;;;;;;;;;;5090873;28;20482;-48
2022/01/14 03:31:40;;;;;;;93.22;33.90;;;;;;;;;;5090695;28;20028;-46
2022/01/14 03:34:07;;;;;;;93.15;36.33;;;;;;;;;;5090691;28;20044;-47
2022/01/14 03:36:33;;;;;;;84.10;34.60;;;;;;;;;;5090839;28;20040;-49
2022/01/14 03:38:59;;;;;;;89.75;35.25;;;;;;;;;;5090503;28;20123;-47
2022/01/14 03:41:25;;;;;;;88.28;34.50;;;;;;;;;;5090515;28;20579;-46
2022/01/14 03:43:51;;;;;;;87.95;34.40;;;;;;;;;;5090678;28;20040;-47
2022/01/14 03:46:17;;;;;;;87.28;34.10;;;;;;;;;;5090415;28;20397;-47
2022/01/14 03:48:43;;;;;;;83.75;34.03;;;;;;;;;;5090750;28;20028;-49
2022/01/14 03:51:11;;;;;;;85.88;33.40;;;;;;;;;;5090514;28;20039;-47
2022/01/14 03:53:38;;;;;;;77.47;34.25;;;;;;;;;;5090319;28;20048;-47
2022/01/14 03:56:18;;;;;;;93.90;34.22;;;;;;;;;;5090584;28;20481;-47
2022/01/14 03:58:59;;;;;;;75.85;31.55;;;;;;;;;;5088749;28;20040;-46
2022/01/14 04:01:25;;;;;;;93.55;35.60;;;;;;;;;;5090130;28;20516;-46
2022/01/14 04:03:51;;;;;;;87.38;34.65;;;;;;;;;;5090325;28;20050;-49
2022/01/14 04:06:18;;;;;;;87.07;35.05;;;;;;;;;;5090206;28;20040;-48
2022/01/14 04:08:44;;;;;;;82.90;34.10;;;;;;;;;;5072054;28;20047;-48
2022/01/14 04:11:11;;;;;;;87.53;36.60;;;;;;;;;;5090160;28;20035;-46
2022/01/14 04:13:43;;;;;;;86.68;42.08;;;;;;;;;;5090093;28;20037;-46
2022/01/14 04:16:12;;;;;;;84.97;38.20;;;;;;;;;;5093407;28;20093;-47
2022/01/14 04:18:38;;;;;;;85.82;36.00;;;;;;;;;;5093799;28;20123;-47
2022/01/14 04:21:05;;;;;;;99.95;42.33;;;;;;;;;;5093895;28;20047;-47
2022/01/14 04:23:36;;;;;;;96.15;39.88;;;;;;;;;;5093267;28;20121;-47
2022/01/14 04:26:03;;;;;;;79.43;34.55;;;;;;;;;;5093554;28;20044;-46
2022/01/14 04:28:30;;;;;;;85.32;39.03;;;;;;;;;;5075429;28;20092;-47
2022/01/14 04:30:56;;;;;;;88.40;39.78;;;;;;;;;;5093550;28;20266;-46
2022/01/14 04:33:23;;;;;;;79.97;33.35;;;;;;;;;;5093495;28;20477;-50
2022/01/14 04:35:49;;;;;;;81.70;35.13;;;;;;;;;;5093117;28;20036;-50
2022/01/14 04:38:17;;;;;;;88.70;37.92;;;;;;;;;;5093149;28;20097;-47
2022/01/14 04:40:43;;;;;;;85.45;37.20;;;;;;;;;;5092858;28;20044;-47
2022/01/14 04:43:09;;;;;;;86.15;35.45;;;;;;;;;;5093159;28;20036;-48
2022/01/14 04:48:05;;;;;;;72.93;34.38;;;;;;;;;;5092828;28;20043;-48
2022/01/14 04:50:32;;;;;;;89.22;35.13;;;;;;;;;;5093268;28;20040;-48
2022/01/14 04:52:58;;;;;;;90.70;35.90;;;;;;;;;;5090068;28;20047;-48
2022/01/14 04:55:27;;;;;;;85.95;37.17;;;;;;;;;;5091596;28;20072;-47
2022/01/14 04:57:54;;;;;;;76.85;34.67;;;;;;;;;;5093110;28;20040;-49
2022/01/14 05:00:21;;;;;;;76.25;34.17;;;;;;;;;;5074106;28;20044;-48
2022/01/14 05:02:48;;;;;;;78.85;33.22;;;;;;;;;;5093166;28;20044;-49
2022/01/14 05:05:20;;;;;;;76.55;32.20;;;;;;;;;;5092216;28;20055;-51
2022/01/14 05:07:48;;;;;;;77.65;31.52;;;;;;;;;;5092921;28;20044;-48
2022/01/14 05:12:53;;;;;;;68.35;30.42;;;;;;;;;;5099543;28;20089;-47
2022/01/14 05:15:21;;;;;;;66.60;28.75;;;;;;;;;;5103625;28;20044;-46
2022/01/14 05:17:47;;;;;;;64.95;28.65;;;;;;;;;;5105486;28;20050;-46
2022/01/14 05:20:15;;;;;;;70.43;29.48;;;;;;;;;;5095096;28;20051;-45
2022/01/14 05:22:41;;;;;;;70.97;28.80;;;;;;;;;;5109265;28;20141;-46
2022/01/14 05:25:09;;;;;;;75.25;30.15;;;;;;;;;;5112498;28;20092;-47
2022/01/14 05:27:35;;;;;;;70.22;30.00;;;;;;;;;;5109148;28;20043;-46
2022/01/14 05:30:01;;;;;;;64.80;28.65;;;;;;;;;;5112395;28;20097;-45
2022/01/14 05:32:28;;;;;;;67.28;30.20;;;;;;;;;;5111250;28;20081;-46
2022/01/14 05:34:55;;;;;;;72.50;31.08;;;;;;;;;;5112455;28;20040;-45
2022/01/14 05:37:20;;;;;;;76.88;31.35;;;;;;;;;;5111758;28;20050;-47
2022/01/14 05:39:46;;;;;;;72.25;30.65;;;;;;;;;;5112937;28;20464;-46
2022/01/14 05:42:12;;;;;;;80.43;33.30;;;;;;;;;;5112543;28;20040;-49
2022/01/14 05:44:40;;;;;;;78.40;31.98;;;;;;;;;;5112888;28;20485;-50
2022/01/14 05:47:06;;;;;;;76.13;31.80;;;;;;;;;;5111647;28;20044;-51
2022/01/14 05:49:32;;;;;;;72.88;31.65;;;;;;;;;;5112699;28;20314;-49
2022/01/14 05:51:59;;;;;;;78.68;34.85;;;;;;;;;;5076834;28;20031;-50
2022/01/14 05:54:34;;;;;;;67.60;29.95;;;;;;;;;;5112147;28;20092;-46
2022/01/14 05:57:00;;;;;;;76.75;31.08;;;;;;;;;;5112298;28;20623;-46
2022/01/14 05:59:26;;;;;;;70.40;30.63;;;;;;;;;;5112217;28;20287;-46
2022/01/14 06:01:56;;;;;;;68.35;31.23;;;;;;;;;;5111573;28;20050;-47
2022/01/14 06:04:23;;;;;;;73.35;30.85;;;;;;;;;;5112260;28;20045;-49
2022/01/14 06:06:52;;;;;;;70.68;30.83;;;;;;;;;;5092766;28;20054;-47
2022/01/14 06:09:18;;;;;;;69.13;31.80;;;;;;;;;;5112223;28;20039;-47
2022/01/14 06:11:44;;;;;;;68.88;32.22;;;;;;;;;;5111819;28;20035;-46
2022/01/14 06:14:17;;;;;;;63.17;29.25;;;;;;;;;;5111612;28;20118;-48
2022/01/14 06:16:43;;;;;;;66.25;29.20;;;;;;;;;;5111543;28;20044;-46
2022/01/14 06:19:09;;;;;;;68.97;30.35;;;;;;;;;;5111716;28;20035;-49
2022/01/14 06:21:35;;;;;;;73.13;29.67;;;;;;;;;;5111399;28;20075;-47
2022/01/14 06:24:01;;;;;;;59.65;29.38;;;;;;;;;;5111837;28;20484;-47
2022/01/14 06:26:27;;;;;;;61.30;27.75;;;;;;;;;;5111384;28;20039;-47
2022/01/14 06:28:53;;;;;;;62.97;28.25;;;;;;;;;;5111769;28;20036;-46
2022/01/14 06:31:20;;;;;;;58.63;29.40;;;;;;;;;;5111309;28;20042;-47
2022/01/14 06:33:46;;;;;;;62.70;28.73;;;;;;;;;;5111886;28;20044;-46
2022/01/14 06:36:14;;;;;;;58.45;28.45;;;;;;;;;;5111247;28;20040;-46
2022/01/14 06:38:40;;;;;;;57.22;28.45;;;;;;;;;;5110309;28;20477;-46
2022/01/14 06:41:06;;;;;;;57.83;27.23;;;;;;;;;;5111020;28;20050;-46
2022/01/14 06:43:38;;;;;;;52.60;26.13;;;;;;;;;;5108593;28;20407;-48
2022/01/14 06:46:04;;;;;;;58.20;26.70;;;;;;;;;;5110611;28;20035;-48
2022/01/14 06:48:30;;;;;;;58.55;28.58;;;;;;;;;;5110729;28;20068;-48
2022/01/14 06:50:57;;;;;;;52.30;28.10;;;;;;;;;;5109878;28;20058;-50
2022/01/14 06:53:23;;;;;;;49.38;26.27;;;;;;;;;;5110192;28;20471;-46
2022/01/14 06:55:49;;;;;;;51.78;25.90;;;;;;;;;;5109786;28;20044;-47
2022/01/14 06:58:15;;;;;;;48.53;26.27;;;;;;;;;;5108820;28;20638;-47
2022/01/14 07:00:41;;;;;;;58.40;26.55;;;;;;;;;;5110858;28;20504;-47
2022/01/14 07:03:09;;;;;;;51.47;27.45;;;;;;;;;;5109724;28;20051;-47
2022/01/14 07:05:35;;;;;;;48.47;25.63;;;;;;;;;;5110853;28;20046;-50
2022/01/14 07:08:01;;;;;;;47.92;25.13;;;;;;;;;;5111069;28;20039;-47
2022/01/14 07:10:34;;;;;;;51.10;27.42;;;;;;;;;;5110953;28;20118;-47
2022/01/14 07:13:00;;;;;;;48.75;25.23;;;;;;;;;;5109370;28;20092;-50
2022/01/14 07:15:27;;;;;;;44.08;22.80;;;;;;;;;;5109996;28;20493;-48
2022/01/14 07:17:53;;;;;;;55.17;26.67;;;;;;;;;;5092522;28;20036;-49
2022/01/14 07:20:19;;;;;;;53.33;25.70;;;;;;;;;;5110939;28;20470;-48
2022/01/14 07:22:46;;;;;;;48.17;25.02;;;;;;;;;;5109602;28;20062;-48
2022/01/14 07:25:13;;;;;;;50.05;24.98;;;;;;;;;;5110973;28;20122;-47
2022/01/14 07:27:39;;;;;;;47.88;25.05;;;;;;;;;;5108256;28;20039;-52
2022/01/14 07:30:08;;;;;;;50.08;25.92;;;;;;;;;;5111183;28;20031;-47
2022/01/14 07:32:34;;;;;;;51.67;26.27;;;;;;;;;;5105995;28;20035;-48
2022/01/14 07:35:02;;;;;;;45.28;24.98;;;;;;;;;;5105983;28;20035;-48
2022/01/14 07:37:28;;;;;;;47.33;25.40;;;;;;;;;;5106004;28;20062;-47
2022/01/14 07:39:54;;;;;;;48.85;28.13;;;;;;;;;;5106488;28;20092;-47
2022/01/14 07:42:20;;;;;;;39.53;24.70;;;;;;;;;;5105983;28;20035;-49
2022/01/14 07:44:46;;;;;;;47.70;24.88;;;;;;;;;;5087848;28;20067;-47
2022/01/14 07:47:12;;;;;;;45.55;23.85;;;;;;;;;;5108813;28;20525;-47
2022/01/14 07:49:38;;;;;;;43.10;25.00;;;;;;;;;;5113043;28;20074;-46
2022/01/14 07:52:07;;;;;;;53.13;30.15;;;;;;;;;;5113197;28;20067;-46
2022/01/14 07:54:33;;;;;;;53.53;30.73;;;;;;;;;;5114122;28;20077;-46
2022/01/14 07:57:00;;;;;;;50.80;25.63;;;;;;;;;;5113460;28;20096;-48
2022/01/14 07:59:28;;;;;;;47.15;25.98;;;;;;;;;;5113620;28;20454;-48
2022/01/14 08:01:55;;;;;;;42.70;26.17;;;;;;;;;;5108922;28;20040;-49
2022/01/14 08:04:22;;;;;;;45.03;26.00;;;;;;;;;;5092378;28;20114;-47
2022/01/14 08:06:51;;;;;;;40.55;23.17;;;;;;;;;;5106588;28;20093;-52
2022/01/14 08:09:20;;;;;;;42.95;25.77;;;;;;;;;;5110586;28;20033;-47
2022/01/14 08:11:47;;;;;;;40.85;24.33;;;;;;;;;;5093753;28;20040;-48
2022/01/14 08:14:20;;;;;;;35.95;23.42;;;;;;;;;;5075559;28;20123;-48
2022/01/14 08:16:48;;;;;;;47.92;24.55;;;;;;;;;;5086194;28;20039;-47
2022/01/14 08:19:17;;;;;;;37.42;22.73;;;;;;;;;;5099457;28;20541;-49
2022/01/14 08:21:49;;;;;;;45.33;26.60;;;;;;;;;;5090835;28;20116;-51
2022/01/14 08:24:15;;;;;;;38.42;22.98;;;;;;;;;;5112504;28;20101;-47
2022/01/14 08:26:41;;;;;;;41.47;24.40;;;;;;;;;;5111459;28;20126;-48
2022/01/14 08:29:07;;;;;;;40.42;23.27;;;;;;;;;;5105658;28;20477;-48
2022/01/14 08:31:33;;;;;;;35.60;22.35;;;;;;;;;;5112088;28;20043;-48
2022/01/14 08:34:00;;;;;;;41.33;22.05;;;;;;;;;;5096244;28;20066;-48
2022/01/14 08:36:28;;;;;;;38.65;23.65;;;;;;;;;;5102524;28;20048;-48
2022/01/14 08:38:54;;;;;;;33.85;20.80;;;;;;;;;;5094958;28;20040;-48
2022/01/14 08:41:20;;;;;;;44.67;21.95;;;;;;;;;;5106837;28;20039;-48
2022/01/14 08:43:47;;;;;;;39.72;22.42;;;;;;;;;;5112085;28;20043;-48
2022/01/14 08:46:14;;;;;;;38.00;21.67;;;;;;;;;;5095134;28;20516;-49
2022/01/14 08:48:40;;;;;;;40.05;22.23;;;;;;;;;;5090835;28;20040;-49
2022/01/14 08:51:06;;;;;;;34.38;21.40;;;;;;;;;;5105299;28;20119;-48
2022/01/14 08:53:37;;;;;;;41.38;21.73;;;;;;;;;;5073132;28;20079;-51
2022/01/14 08:56:03;;;;;;;35.13;21.85;;;;;;;;;;5097336;28;20038;-48
2022/01/14 08:58:29;;;;;;;35.25;21.05;;;;;;;;;;5101503;28;20082;-49
2022/01/14 09:00:55;;;;;;;34.63;20.83;;;;;;;;;;5098934;28;20071;-49
2022/01/14 09:03:21;;;;;;;31.58;19.70;;;;;;;;;;5097742;28;21275;-48
2022/01/14 09:05:47;;;;;;;33.05;20.90;;;;;;;;;;5109964;28;20035;-48
2022/01/14 09:08:16;;;;;;;42.83;22.13;;;;;;;;;;5112392;28;20042;-48
2022/01/14 09:10:42;;;;;;;37.08;20.23;;;;;;;;;;5110931;28;20040;-49
2022/01/14 09:13:08;;;;;;;31.15;19.52;;;;;;;;;;5105234;28;20036;-49
2022/01/14 09:15:46;;;;;;;30.08;19.67;;;;;;;;;;5111551;28;20032;-48
2022/01/14 09:18:17;;;;;;;37.95;19.77;;;;;;;;;;5112328;28;20040;-50
2022/01/14 09:20:45;;;;;;;37.45;20.48;;;;;;;;;;5112306;28;20123;-48
2022/01/14 09:23:17;;;;;;;31.33;18.88;;;;;;;;;;5111436;28;20035;-49
2022/01/14 09:25:47;;;;;;;39.28;20.08;;;;;;;;;;5112408;28;20504;-46
2022/01/14 09:28:13;;;;;;;40.03;19.67;;;;;;;;;;5111740;28;20039;-49
2022/01/14 09:30:39;;;;;;;35.58;19.00;;;;;;;;;;5112411;28;20031;-49
2022/01/14 09:33:07;;;;;;;29.77;18.27;;;;;;;;;;5111470;28;20476;-48
2022/01/14 09:35:34;;;;;;;31.92;19.08;;;;;;;;;;5109402;28;20028;-48
2022/01/14 09:38:00;;;;;;;27.85;18.20;;;;;;;;;;5110284;28;20150;-48
2022/01/14 09:40:28;;;;;;;32.75;18.70;;;;;;;;;;5112076;28;20713;-48
2022/01/14 09:43:00;;;;;;;30.25;17.95;;;;;;;;;;5111957;28;20500;-48
2022/01/14 09:45:26;;;;;;;30.27;19.58;;;;;;;;;;5110847;28;20077;-50
2022/01/14 09:47:52;;;;;;;31.58;18.13;;;;;;;;;;5111928;28;20044;-47
2022/01/14 09:50:21;;;;;;;28.40;17.02;;;;;;;;;;5112643;28;20084;-48
2022/01/14 09:52:51;;;;;;;28.90;17.38;;;;;;;;;;5112168;28;20420;-49
2022/01/14 09:55:24;;;;;;;26.55;16.77;;;;;;;;;;5112849;28;20039;-48
2022/01/14 09:57:53;;;;;;;25.67;16.77;;;;;;;;;;5094505;28;20118;-48
2022/01/14 10:00:19;;;;;;;28.05;17.20;;;;;;;;;;5112511;28;20046;-49
2022/01/14 10:02:46;;;;;;;28.48;15.95;;;;;;;;;;5093796;28;20096;-48
2022/01/14 10:05:30;;;;;;;24.60;16.45;;;;;;;;;;5112541;28;20047;-49
2022/01/14 10:08:09;;;;;;;28.13;16.15;;;;;;;;;;5112721;28;20075;-50
2022/01/14 10:10:37;;;;;;;32.47;17.30;;;;;;;;;;5112684;28;20046;-49
2022/01/14 10:13:37;;;;;;;26.05;14.75;;;;;;;;;;5112437;28;20535;-49
2022/01/14 10:16:07;;;;;;;31.48;18.55;;;;;;;;;;5009567;28;20456;-48
2022/01/14 10:18:34;;;;;;;29.17;16.52;;;;;;;;;;5026849;28;20040;-48
2022/01/14 10:21:06;;;;;;;23.65;14.48;;;;;;;;;;5111854;28;20038;-48
2022/01/14 10:23:44;;;;;;;25.98;14.25;;;;;;;;;;5106306;28;20070;-47
2022/01/14 10:26:11;;;;;;;26.10;15.63;;;;;;;;;;5111235;28;20082;-47
2022/01/14 10:28:38;;;;;;;22.60;14.35;;;;;;;;;;5111297;28;20043;-49
2022/01/14 10:31:07;;;;;;;24.08;14.40;;;;;;;;;;5111524;28;20105;-47
2022/01/14 10:33:33;;;;;;;24.60;14.07;;;;;;;;;;5111211;28;20118;-48
2022/01/14 10:35:59;;;;;;;21.52;13.05;;;;;;;;;;5110382;28;20061;-49
2022/01/14 10:38:26;;;;;;;21.88;13.13;;;;;;;;;;5110837;28;20043;-48
2022/01/14 10:40:52;;;;;;;23.08;12.70;;;;;;;;;;5110547;28;20553;-49
2022/01/14 10:43:21;;;;;;;20.05;11.55;;;;;;;;;;5093416;28;20409;-47
2022/01/14 10:45:48;;;;;;;18.95;13.45;;;;;;;;;;5093520;28;20101;-47
2022/01/14 10:48:21;;;;;;;23.75;14.82;;;;;;;;;;5110697;28;20393;-51
2022/01/14 10:50:48;;;;;;;22.00;13.07;;;;;;;;;;5075016;28;20089;-52
2022/01/14 10:53:21;;;;;;;26.25;13.55;;;;;;;;;;5080715;28;20048;-51
2022/01/14 10:55:55;;;;;;;23.48;11.57;;;;;;;;;;5070948;28;20044;-50
2022/01/14 10:58:25;;;;;;;22.50;12.18;;;;;;;;;;5090808;28;20127;-51
2022/01/14 11:00:59;;;;;;;21.13;12.75;;;;;;;;;;5090740;28;20118;-50
2022/01/14 11:03:44;;;;;;;21.45;12.40;;;;;;;;;;5090762;28;20046;-50
2022/01/14 11:06:22;;;;;;;19.75;11.43;;;;;;;;;;5090970;28;20435;-51
2022/01/14 11:09:14;;;;;;;16.65;10.45;;;;;;;;;;5091022;28;20489;-49
2022/01/14 11:12:12;;;;;;;20.77;10.35;;;;;;;;;;5090441;28;20059;-49
2022/01/14 11:14:40;;;;;;;22.08;10.80;;;;;;;;;;5090757;28;20051;-51
2022/01/14 11:17:09;;;;;;;15.60;11.05;;;;;;;;;;5090931;28;20079;-48
2022/01/14 11:19:41;;;;;;;16.83;9.95;;;;;;;;;;5090772;28;20044;-48
2022/01/14 11:24:59;;;;;;;23.00;10.35;;;;;;;;;;5094124;28;20071;-50
2022/01/14 11:27:26;;;;;;;15.35;9.95;;;;;;;;;;5095135;28;20044;-49
2022/01/14 11:29:57;;;;;;;16.33;9.43;;;;;;;;;;5094739;28;20056;-49
2022/01/14 11:32:25;;;;;;;17.63;9.80;;;;;;;;;;5094929;28;20040;-48
2022/01/14 11:34:51;;;;;;;14.95;9.60;;;;;;;;;;5094434;28;20174;-49
2022/01/14 11:37:32;;;;;;;17.38;9.32;;;;;;;;;;5094813;28;20040;-46
2022/01/14 11:40:02;;;;;;;16.92;9.65;;;;;;;;;;5076625;28;20169;-47
2022/01/14 11:42:45;;;;;;;17.98;9.27;;;;;;;;;;5093043;28;20135;-46
2022/01/14 11:45:22;;;;;;;12.93;8.45;;;;;;;;;;5093503;28;20063;-49
2022/01/14 11:47:59;;;;;;;12.02;7.70;;;;;;;;;;5093312;28;20040;-52
2022/01/14 11:50:35;;;;;;;13.80;8.45;;;;;;;;;;5094253;28;20135;-52
2022/01/14 11:53:02;;;;;;;15.02;8.27;;;;;;;;;;5092692;28;20039;-50
2022/01/14 11:55:29;;;;;;;11.80;8.20;;;;;;;;;;5093305;28;20044;-51
2022/01/14 11:58:00;;;;;;;14.38;8.88;;;;;;;;;;5093246;28;20079;-50
2022/01/14 12:00:37;;;;;;;14.30;8.15;;;;;;;;;;5092762;28;20048;-49
2022/01/14 12:03:15;;;;;;;13.15;8.30;;;;;;;;;;5092167;28;20119;-50
2022/01/14 12:05:53;;;;;;;20.10;8.27;;;;;;;;;;5092920;28;20052;-49
2022/01/14 12:08:23;;;;;;;16.92;8.60;;;;;;;;;;5093345;28;20072;-53
2022/01/14 12:10:51;;;;;;;14.63;6.90;;;;;;;;;;5099250;28;20032;-50
2022/01/14 12:16:11;;;;;;;15.18;7.07;;;;;;;;;;5110751;28;20042;-52
2022/01/14 12:18:55;;;;;;;13.88;7.32;;;;;;;;;;5112237;28;20419;-49
2022/01/14 12:21:42;;;;;;;14.85;7.63;;;;;;;;;;5113114;28;20051;-49
2022/01/14 12:24:21;;;;;;;15.68;7.40;;;;;;;;;;5096445;28;20521;-50
2022/01/14 12:26:54;;;;;;;13.93;6.97;;;;;;;;;;5113274;28;20055;-49
2022/01/14 12:29:35;;;;;;;12.15;6.80;;;;;;;;;;5113761;28;20047;-50
2022/01/14 12:32:04;;;;;;;12.65;6.30;;;;;;;;;;5113406;28;20039;-50
2022/01/14 12:34:31;;;;;;;13.30;6.38;;;;;;;;;;5113415;28;20040;-48
2022/01/14 12:36:59;;;;;;;12.27;6.53;;;;;;;;;;5111543;28;20396;-51
2022/01/14 12:39:25;;;;;;;10.73;6.10;;;;;;;;;;5112366;28;20093;-50
2022/01/14 12:41:54;;;;;;;19.38;7.70;;;;;;;;;;5112145;28;20039;-51
2022/01/14 12:44:21;;;;;;;11.77;6.38;;;;;;;;;;5112581;28;20039;-49
2022/01/14 12:49:35;;;;;;;13.60;7.35;;;;;;;;;;5111042;28;20400;-48
2022/01/14 12:52:01;;;;;;;14.23;6.68;;;;;;;;;;5110171;28;20043;-51
2022/01/14 12:54:34;;;;;;;13.32;6.40;;;;;;;;;;5112542;28;20397;-47
2022/01/14 12:57:01;;;;;;;12.98;7.57;;;;;;;;;;5111696;28;20044;-49
2022/01/14 12:59:38;;;;;;;11.05;6.40;;;;;;;;;;5112702;28;20039;-47
2022/01/14 13:02:07;;;;;;;14.73;7.07;;;;;;;;;;5112822;28;20043;-50
2022/01/14 13:04:33;;;;;;;12.38;6.75;;;;;;;;;;5095510;28;20048;-52
2022/01/14 13:07:03;;;;;;;13.90;6.60;;;;;;;;;;5111849;28;20039;-51
2022/01/14 13:09:31;;;;;;;11.70;6.57;;;;;;;;;;5112337;28;20499;-49
2022/01/14 13:12:03;;;;;;;14.60;9.63;;;;;;;;;;5111472;28;20032;-51
2022/01/14 13:14:34;;;;;;;12.00;7.88;;;;;;;;;;5111760;28;20031;-51
2022/01/14 13:17:14;;;;;;;13.70;7.10;;;;;;;;;;5111709;28;20039;-50
2022/01/14 13:19:41;;;;;;;16.50;7.60;;;;;;;;;;5105414;28;20320;-52
2022/01/14 13:22:17;;;;;;;13.82;8.60;;;;;;;;;;5090735;28;20036;-47
2022/01/14 13:24:47;;;;;;;12.68;8.25;;;;;;;;;;5111068;28;20035;-48
2022/01/14 13:27:14;;;;;;;14.32;7.15;;;;;;;;;;5111003;28;20039;-50
2022/01/14 13:29:44;;;;;;;12.25;7.30;;;;;;;;;;5111727;28;20469;-48
2022/01/14 13:32:11;;;;;;;14.23;6.95;;;;;;;;;;5111452;28;20040;-52
2022/01/14 13:34:39;;;;;;;15.98;7.57;;;;;;;;;;5111254;28;20035;-47
2022/01/14 13:37:05;;;;;;;10.70;6.80;;;;;;;;;;5092583;28;20035;-48
2022/01/14 13:39:31;;;;;;;12.18;7.45;;;;;;;;;;5111710;28;20485;-49
2022/01/14 13:41:57;;;;;;;14.82;6.53;;;;;;;;;;5108651;28;20071;-50
2022/01/14 13:44:31;;;;;;;11.52;6.45;;;;;;;;;;5108368;28;20127;-49
2022/01/14 13:47:00;;;;;;;11.13;6.50;;;;;;;;;;5093430;28;20075;-48
2022/01/14 13:49:26;;;;;;;16.23;6.82;;;;;;;;;;5111505;28;20041;-49
2022/01/14 13:52:09;;;;;;;11.10;6.47;;;;;;;;;;5111181;28;20035;-50
2022/01/14 13:54:40;;;;;;;14.90;6.15;;;;;;;;;;5108750;28;20051;-48
2022/01/14 13:57:17;;;;;;;11.13;6.35;;;;;;;;;;5111981;28;20046;-48
2022/01/14 13:59:45;;;;;;;12.77;6.20;;;;;;;;;;5111950;28;20043;-50
2022/01/14 14:02:11;;;;;;;16.33;6.22;;;;;;;;;;5111253;28;20052;-48
2022/01/14 14:04:47;;;;;;;9.93;6.05;;;;;;;;;;5111615;28;20078;-49
2022/01/14 14:07:27;;;;;;;13.05;5.75;;;;;;;;;;5109019;28;20464;-50
2022/01/14 14:10:19;;;;;;;11.68;6.60;;;;;;;;;;5093717;28;20070;-49
2022/01/14 14:12:48;;;;;;;12.55;5.95;;;;;;;;;;5111699;28;20104;-48
2022/01/14 14:18:28;;;;;;;13.90;5.95;;;;;;;;;;5111582;28;20079;-51
2022/01/14 14:20:54;;;;;;;10.32;5.57;;;;;;;;;;5109174;28;20055;-48
2022/01/14 14:23:22;;;;;;;16.08;6.20;;;;;;;;;;5111753;28;20040;-49
2022/01/14 14:25:49;;;;;;;14.13;6.05;;;;;;;;;;5111851;28;20122;-48
2022/01/14 14:28:19;;;;;;;10.45;6.40;;;;;;;;;;5111383;28;20488;-48
2022/01/14 14:30:50;;;;;;;14.73;6.38;;;;;;;;;;5111614;28;20377;-51
2022/01/14 14:33:17;;;;;;;10.63;6.72;;;;;;;;;;5111818;28;20071;-48
2022/01/14 14:35:48;;;;;;;15.07;6.50;;;;;;;;;;5093610;28;20071;-47
2022/01/14 14:38:18;;;;;;;13.07;6.10;;;;;;;;;;5111873;28;20205;-49
2022/01/14 14:40:47;;;;;;;12.18;5.93;;;;;;;;;;5111771;28;20047;-50
2022/01/14 14:43:13;;;;;;;12.88;6.15;;;;;;;;;;5111459;28;20050;-51
2022/01/14 14:45:39;;;;;;;10.00;5.60;;;;;;;;;;5111361;28;20396;-51
2022/01/14 14:48:06;;;;;;;10.75;5.93;;;;;;;;;;5110706;28;20039;-50
2022/01/14 14:50:32;;;;;;;11.95;5.68;;;;;;;;;;5111438;28;20052;-48
2022/01/14 14:53:01;;;;;;;14.38;5.97;;;;;;;;;;5111326;28;20040;-51
2022/01/14 14:55:28;;;;;;;12.63;5.90;;;;;;;;;;5111387;28;20040;-47
2022/01/14 14:57:54;;;;;;;15.45;5.45;;;;;;;;;;5111296;28;20048;-48
2022/01/14 15:00:21;;;;;;;16.30;6.13;;;;;;;;;;5110908;28;20042;-51
2022/01/14 15:02:49;;;;;;;15.55;6.57;;;;;;;;;;5110927;28;20039;-50
2022/01/14 15:05:16;;;;;;;14.23;5.95;;;;;;;;;;5110496;28;20038;-51
2022/01/14 15:07:42;;;;;;;13.10;5.43;;;;;;;;;;5111303;28;20488;-51